createdAt,value
2023-05-19T00:01:30.040Z,8.93
2023-05-19T00:04:02.941Z,8.92
2023-05-19T00:06:33.216Z,8.88
2023-05-19T00:09:07.883Z,8.86
2023-05-19T00:11:39.674Z,8.85
2023-05-19T00:14:09.902Z,8.82
2023-05-19T00:16:39.050Z,8.75
2023-05-19T00:19:10.254Z,8.72
2023-05-19T00:21:41.012Z,8.72
2023-05-19T00:24:08.988Z,8.68
2023-05-19T00:26:36.340Z,8.64
2023-05-19T00:29:06.281Z,8.63
2023-05-19T00:31:37.908Z,8.59
2023-05-19T00:34:05.314Z,8.51
2023-05-19T00:36:33.707Z,8.49
2023-05-19T00:39:01.025Z,8.46
2023-05-19T00:41:29.950Z,8.42
2023-05-19T00:43:57.680Z,8.38
2023-05-19T00:46:25.949Z,8.31
2023-05-19T00:48:53.255Z,8.28
2023-05-19T00:51:20.947Z,8.28
2023-05-19T00:53:52.356Z,8.23
2023-05-19T00:56:21.829Z,8.23
2023-05-19T00:58:52.222Z,8.19
2023-05-19T01:01:22.452Z,8.15
2023-05-19T01:03:51.420Z,8.15
2023-05-19T01:06:22.186Z,8.13
2023-05-19T01:08:51.914Z,8.09
2023-05-19T01:11:21.512Z,8.11
2023-05-19T01:13:49.706Z,8.13
2023-05-19T01:16:39.301Z,8.14
2023-05-19T01:19:33.523Z,8.11
2023-05-19T01:22:23.029Z,8.12
2023-05-19T01:25:55.312Z,8.08
2023-05-19T01:28:55.679Z,8.07
2023-05-19T01:31:26.636Z,8.07
2023-05-19T01:33:56.743Z,8.04
2023-05-19T01:36:26.994Z,8.01
2023-05-19T01:38:59.157Z,7.98
2023-05-19T01:41:30.619Z,8.00
2023-05-19T01:43:58.558Z,8.00
2023-05-19T01:46:26.047Z,7.96
2023-05-19T01:48:56.053Z,7.93
2023-05-19T01:51:23.369Z,7.93
2023-05-19T01:53:51.253Z,7.87
2023-05-19T01:57:09.967Z,7.83
2023-05-19T02:00:33.446Z,7.82
2023-05-19T02:03:57.351Z,7.80
2023-05-19T02:06:56.459Z,7.81
2023-05-19T02:10:02.757Z,7.76
2023-05-19T02:12:40.272Z,7.75
2023-05-19T02:15:27.199Z,7.76
2023-05-19T02:18:00.283Z,7.75
2023-05-19T02:20:29.572Z,7.76
2023-05-19T02:22:56.899Z,7.75
2023-05-19T02:25:24.926Z,7.75
2023-05-19T02:27:53.169Z,7.76
2023-05-19T02:30:20.593Z,7.76
2023-05-19T02:32:48.455Z,7.76
2023-05-19T02:35:16.866Z,7.80
2023-05-19T02:37:44.378Z,7.75
2023-05-19T02:40:13.071Z,7.73
2023-05-19T02:42:41.980Z,7.69
2023-05-19T02:45:10.648Z,7.69
2023-05-19T02:47:41.625Z,7.68
2023-05-19T02:50:09.696Z,7.65
2023-05-19T02:52:37.091Z,7.60
2023-05-19T02:55:04.893Z,7.57
2023-05-19T02:57:34.924Z,7.56
2023-05-19T03:00:02.888Z,7.54
2023-05-19T03:02:30.289Z,7.56
2023-05-19T03:04:57.949Z,7.50
2023-05-19T03:07:25.540Z,7.47
2023-05-19T03:09:53.393Z,7.44
2023-05-19T03:12:21.853Z,7.45
2023-05-19T03:14:49.251Z,7.41
2023-05-19T03:17:16.602Z,7.42
2023-05-19T03:19:44.065Z,7.38
2023-05-19T03:22:11.388Z,7.36
2023-05-19T03:24:39.020Z,7.35
2023-05-19T03:27:06.568Z,7.32
2023-05-19T03:29:35.552Z,7.29
2023-05-19T03:32:03.518Z,7.30
2023-05-19T03:34:32.638Z,7.31
2023-05-19T03:36:59.921Z,7.31
2023-05-19T03:39:27.202Z,7.31
2023-05-19T03:41:54.464Z,7.27
2023-05-19T03:44:21.923Z,7.28
2023-05-19T03:46:49.400Z,7.29
2023-05-19T03:49:46.041Z,7.29
2023-05-19T03:52:33.693Z,7.27
2023-05-19T03:55:11.544Z,7.25
2023-05-19T03:57:41.441Z,7.24
2023-05-19T04:00:12.338Z,7.24
2023-05-19T04:02:41.112Z,7.24
2023-05-19T04:05:09.669Z,7.24
2023-05-19T04:07:38.099Z,7.21
2023-05-19T04:10:06.428Z,7.24
2023-05-19T04:12:34.030Z,7.24
2023-05-19T04:15:01.414Z,7.23
2023-05-19T04:17:28.940Z,7.26
2023-05-19T04:19:57.611Z,7.28
2023-05-19T04:22:25.920Z,7.31
2023-05-19T04:24:53.210Z,7.27
2023-05-19T04:27:22.198Z,7.32
2023-05-19T04:29:50.032Z,7.33
2023-05-19T04:32:17.843Z,7.34
2023-05-19T04:34:46.224Z,7.35
2023-05-19T04:37:20.617Z,7.39
2023-05-19T04:39:48.379Z,7.42
2023-05-19T04:42:19.326Z,7.45
2023-05-19T04:44:49.375Z,7.53
2023-05-19T04:47:21.545Z,7.55
2023-05-19T04:49:49.827Z,7.56
2023-05-19T04:52:21.835Z,7.61
2023-05-19T04:54:49.379Z,7.62
2023-05-19T04:57:17.295Z,7.66
2023-05-19T04:59:46.377Z,7.69
2023-05-19T05:02:13.997Z,7.71
2023-05-19T05:04:44.169Z,7.78
2023-05-19T05:07:11.528Z,7.82
2023-05-19T05:09:39.457Z,7.88
2023-05-19T05:12:09.166Z,7.92
2023-05-19T05:14:40.155Z,8.00
2023-05-19T05:17:09.753Z,8.10
2023-05-19T05:19:38.022Z,8.18
2023-05-19T05:22:08.466Z,8.29
2023-05-19T05:24:39.691Z,8.39
2023-05-19T05:27:10.265Z,8.43
2023-05-19T05:29:38.010Z,8.59
2023-05-19T05:32:07.953Z,8.71
2023-05-19T05:34:37.685Z,8.83
2023-05-19T05:37:05.836Z,8.95
2023-05-19T05:39:34.061Z,9.11
2023-05-19T05:42:01.520Z,9.14
2023-05-19T05:44:29.196Z,9.19
2023-05-19T05:46:57.447Z,9.26
2023-05-19T05:49:25.531Z,9.35
2023-05-19T05:54:30.251Z,9.49
2023-05-19T05:56:58.474Z,9.65
2023-05-19T05:59:26.557Z,9.75
2023-05-19T06:01:53.912Z,9.88
2023-05-19T06:04:22.675Z,9.93
2023-05-19T06:06:49.941Z,10.05
2023-05-19T06:09:22.206Z,10.20
2023-05-19T06:11:49.593Z,10.27
2023-05-19T06:14:17.432Z,10.35
2023-05-19T06:17:12.646Z,10.41
2023-05-19T06:19:39.925Z,10.48
2023-05-19T06:22:07.779Z,10.55
2023-05-19T06:24:36.273Z,10.58
2023-05-19T06:27:05.664Z,10.67
2023-05-19T06:29:32.994Z,10.79
2023-05-19T06:32:03.719Z,10.87
2023-05-19T06:34:31.277Z,10.97
2023-05-19T06:37:00.196Z,11.06
2023-05-19T06:39:27.504Z,11.17
2023-05-19T06:41:55.150Z,11.28
2023-05-19T06:44:40.987Z,11.36
2023-05-19T06:47:14.315Z,11.51
2023-05-19T06:49:42.628Z,11.65
2023-05-19T06:52:10.434Z,11.80
2023-05-19T06:54:38.217Z,11.91
2023-05-19T06:57:05.903Z,11.97
2023-05-19T06:59:33.565Z,12.07
2023-05-19T07:02:02.512Z,12.15
2023-05-19T07:04:30.570Z,12.23
2023-05-19T07:06:57.913Z,12.32
2023-05-19T07:09:26.278Z,12.53
2023-05-19T07:11:53.801Z,12.60
2023-05-19T07:14:23.493Z,12.71
2023-05-19T07:16:51.002Z,12.88
2023-05-19T07:19:21.515Z,12.94
2023-05-19T07:21:49.312Z,13.05
2023-05-19T07:24:16.618Z,13.12
2023-05-19T07:26:45.023Z,13.16
2023-05-19T07:29:13.089Z,13.30
2023-05-19T07:31:40.994Z,13.40
2023-05-19T07:34:09.304Z,13.51
2023-05-19T07:36:36.786Z,13.61
2023-05-19T07:39:06.213Z,13.67
2023-05-19T07:41:36.389Z,13.78
2023-05-19T07:44:08.001Z,13.94
2023-05-19T07:46:39.250Z,14.03
2023-05-19T07:49:06.685Z,14.21
2023-05-19T07:51:36.472Z,14.38
2023-05-19T07:54:04.269Z,14.50
2023-05-19T07:56:37.488Z,14.66
2023-05-19T07:59:05.364Z,14.76
2023-05-19T08:01:35.350Z,14.80
2023-05-19T08:04:08.530Z,14.95
2023-05-19T08:06:37.050Z,15.32
2023-05-19T08:09:06.184Z,15.62
2023-05-19T08:11:36.606Z,15.75
2023-05-19T08:14:04.839Z,15.87
2023-05-19T08:16:32.404Z,16.07
2023-05-19T08:19:02.735Z,16.24
2023-05-19T08:21:31.326Z,16.37
2023-05-19T08:23:58.558Z,16.60
2023-05-19T08:26:26.388Z,16.98
2023-05-19T08:28:54.354Z,17.18
2023-05-19T08:31:22.922Z,17.44
2023-05-19T08:33:51.738Z,17.68
2023-05-19T08:36:19.835Z,17.92
2023-05-19T08:38:47.125Z,18.18
2023-05-19T08:41:14.539Z,18.47
2023-05-19T08:43:42.350Z,18.75
2023-05-19T08:46:15.251Z,19.05
2023-05-19T08:48:44.977Z,19.32
2023-05-19T08:51:43.807Z,19.80
2023-05-19T08:54:25.573Z,20.21
2023-05-19T08:56:53.436Z,20.42
2023-05-19T08:59:22.488Z,20.62
2023-05-19T09:01:51.372Z,20.76
2023-05-19T09:04:21.006Z,21.04
2023-05-19T09:06:48.604Z,21.26
2023-05-19T09:09:16.066Z,21.37
2023-05-19T09:11:47.304Z,21.64
2023-05-19T09:14:16.033Z,21.64
2023-05-19T09:16:50.941Z,21.74
2023-05-19T09:19:21.352Z,21.92
2023-05-19T09:22:05.561Z,21.91
2023-05-19T09:24:35.190Z,21.90
2023-05-19T09:27:02.470Z,22.10
2023-05-19T09:29:31.177Z,22.37
2023-05-19T09:32:04.323Z,22.42
2023-05-19T09:34:31.909Z,22.32
2023-05-19T09:36:59.965Z,22.26
2023-05-19T09:39:28.938Z,22.34
2023-05-19T09:41:58.735Z,22.47
2023-05-19T09:44:31.275Z,22.61
2023-05-19T09:46:58.987Z,22.70
2023-05-19T09:49:30.296Z,22.87
2023-05-19T09:52:04.857Z,22.91
2023-05-19T09:54:36.014Z,22.79
2023-05-19T09:57:08.157Z,22.82
2023-05-19T09:59:39.038Z,22.80
2023-05-19T10:02:15.672Z,22.77
2023-05-19T10:04:43.502Z,22.77
2023-05-19T10:07:15.820Z,22.84
2023-05-19T10:09:44.368Z,23.06
2023-05-19T10:12:13.383Z,23.16
2023-05-19T10:14:41.692Z,23.30
2023-05-19T10:17:12.361Z,23.31
2023-05-19T10:19:41.485Z,23.15
2023-05-19T10:22:08.825Z,22.96
2023-05-19T10:24:36.170Z,22.50
2023-05-19T10:27:15.973Z,22.35
2023-05-19T10:29:51.813Z,22.42
2023-05-19T10:32:29.335Z,22.64
2023-05-19T10:35:33.517Z,22.83
2023-05-19T10:38:38.688Z,22.80
2023-05-19T10:41:47.036Z,22.94
2023-05-19T10:45:13.374Z,23.08
2023-05-19T10:47:45.671Z,23.21
2023-05-19T10:50:13.189Z,23.26
2023-05-19T10:52:41.215Z,23.35
2023-05-19T10:55:18.404Z,23.47
2023-05-19T10:57:58.252Z,23.46
2023-05-19T11:00:31.944Z,23.41
2023-05-19T11:03:18.619Z,23.52
2023-05-19T11:05:46.542Z,23.68
2023-05-19T11:08:14.170Z,23.91
2023-05-19T11:10:46.258Z,24.00
2023-05-19T11:13:23.380Z,23.97
2023-05-19T11:15:51.018Z,24.00
2023-05-19T11:18:20.680Z,23.97
2023-05-19T11:21:02.356Z,24.01
2023-05-19T11:23:37.919Z,24.18
2023-05-19T11:26:10.156Z,24.20
2023-05-19T11:28:38.715Z,24.23
2023-05-19T11:31:10.378Z,24.29
2023-05-19T11:33:39.806Z,24.17
2023-05-19T11:36:08.373Z,23.96
2023-05-19T11:38:35.664Z,23.73
2023-05-19T11:41:04.363Z,23.72
2023-05-19T11:43:31.763Z,23.70
2023-05-19T11:46:00.740Z,23.66
2023-05-19T11:48:31.286Z,23.56
2023-05-19T11:51:01.049Z,23.45
2023-05-19T11:53:33.294Z,23.34
2023-05-19T11:56:04.634Z,23.27
2023-05-19T11:58:32.149Z,23.09
2023-05-19T12:01:04.948Z,23.04
2023-05-19T12:03:33.171Z,22.92
2023-05-19T12:06:03.604Z,22.80
2023-05-19T12:08:31.008Z,22.79
2023-05-19T12:10:58.434Z,22.94
2023-05-19T12:13:26.144Z,22.89
2023-05-19T12:15:54.053Z,22.84
2023-05-19T12:18:21.561Z,22.73
2023-05-19T12:20:49.237Z,22.57
2023-05-19T12:23:16.757Z,22.37
2023-05-19T12:25:44.395Z,22.19
2023-05-19T12:28:12.557Z,22.21
2023-05-19T12:30:40.050Z,22.18
2023-05-19T12:33:08.632Z,22.16
2023-05-19T12:35:39.312Z,22.21
2023-05-19T12:38:09.750Z,22.18
2023-05-19T12:40:42.409Z,22.15
2023-05-19T12:43:25.221Z,22.11
2023-05-19T12:45:54.302Z,22.00
2023-05-19T12:48:24.950Z,22.08
2023-05-19T12:50:54.511Z,22.13
2023-05-19T12:53:22.332Z,21.96
2023-05-19T12:55:53.108Z,21.81
2023-05-19T12:58:22.790Z,21.81
2023-05-19T13:00:50.617Z,21.96
2023-05-19T13:03:20.769Z,22.26
2023-05-19T13:05:51.144Z,22.45
2023-05-19T13:08:24.070Z,22.64
2023-05-19T13:10:51.704Z,22.81
2023-05-19T13:13:19.449Z,22.84
2023-05-19T13:15:51.062Z,23.05
2023-05-19T13:18:18.970Z,22.96
2023-05-19T13:20:49.192Z,22.84
2023-05-19T13:23:17.412Z,22.97
2023-05-19T13:25:47.000Z,23.15
2023-05-19T13:28:14.520Z,23.25
2023-05-19T13:30:48.251Z,23.41
2023-05-19T13:33:16.909Z,23.69
2023-05-19T13:35:44.267Z,23.93
2023-05-19T13:38:11.670Z,24.00
2023-05-19T13:40:40.380Z,24.10
2023-05-19T13:43:11.048Z,24.29
2023-05-19T13:45:38.614Z,24.58
2023-05-19T13:48:07.364Z,24.73
2023-05-19T13:50:34.958Z,24.91
2023-05-19T13:53:03.813Z,25.08
2023-05-19T13:55:31.687Z,24.76
2023-05-19T13:57:58.997Z,24.62
2023-05-19T14:00:26.408Z,24.80
2023-05-19T14:02:54.128Z,25.13
2023-05-19T14:05:24.219Z,25.40
2023-05-19T14:07:51.702Z,25.55
2023-05-19T14:10:19.008Z,25.73
2023-05-19T14:13:14.090Z,25.80
2023-05-19T14:15:37.770Z,25.80
2023-05-19T14:18:06.949Z,25.86
2023-05-19T14:20:36.277Z,25.80
2023-05-19T14:23:03.909Z,25.87
2023-05-19T14:25:31.256Z,26.06
2023-05-19T14:27:58.588Z,26.08
2023-05-19T14:30:25.917Z,26.16
2023-05-19T14:32:53.265Z,26.30
2023-05-19T14:35:21.063Z,26.37
2023-05-19T14:37:48.383Z,26.42
2023-05-19T14:40:15.852Z,26.35
2023-05-19T14:42:43.184Z,26.42
2023-05-19T14:45:11.726Z,26.37
2023-05-19T14:47:39.302Z,26.45
2023-05-19T14:50:07.204Z,26.59
2023-05-19T14:52:34.518Z,26.73
2023-05-19T14:55:01.818Z,26.76
2023-05-19T14:57:29.137Z,26.35
2023-05-19T14:59:57.932Z,25.30
2023-05-19T15:02:26.884Z,24.29
2023-05-19T15:04:54.887Z,23.95
2023-05-19T15:07:22.364Z,24.37
2023-05-19T15:09:49.656Z,24.76
2023-05-19T15:12:18.152Z,25.09
2023-05-19T15:14:45.397Z,25.31
2023-05-19T15:17:12.989Z,25.38
2023-05-19T15:19:43.262Z,25.41
2023-05-19T15:22:10.840Z,25.59
2023-05-19T15:24:38.321Z,25.72
2023-05-19T15:27:09.415Z,25.52
2023-05-19T15:29:36.997Z,25.70
2023-05-19T15:32:04.756Z,25.83
2023-05-19T15:34:32.233Z,25.83
2023-05-19T15:36:59.528Z,25.82
2023-05-19T15:39:26.819Z,25.84
2023-05-19T15:41:54.098Z,25.85
2023-05-19T15:44:21.375Z,25.69
2023-05-19T15:46:48.878Z,25.37
2023-05-19T15:49:17.922Z,24.74
2023-05-19T15:51:46.030Z,24.01
2023-05-19T15:54:14.501Z,23.56
2023-05-19T15:56:41.862Z,23.29
2023-05-19T15:59:09.186Z,23.08
2023-05-19T16:01:36.946Z,22.69
2023-05-19T16:04:04.962Z,22.41
2023-05-19T16:06:32.434Z,22.23
2023-05-19T16:08:59.765Z,22.09
2023-05-19T16:11:27.348Z,21.99
2023-05-19T16:13:54.564Z,21.80
2023-05-19T16:16:23.634Z,21.66
2023-05-19T16:18:51.012Z,21.37
2023-05-19T16:21:18.367Z,21.20
2023-05-19T16:23:46.968Z,21.03
2023-05-19T16:26:14.345Z,20.90
2023-05-19T16:28:41.725Z,20.82
2023-05-19T16:31:09.904Z,20.74
2023-05-19T16:33:37.384Z,20.72
2023-05-19T16:36:06.406Z,20.70
2023-05-19T16:38:34.110Z,20.72
2023-05-19T16:41:01.339Z,20.68
2023-05-19T16:43:28.611Z,20.56
2023-05-19T16:45:57.103Z,20.48
2023-05-19T16:48:24.622Z,20.44
2023-05-19T16:50:51.900Z,20.35
2023-05-19T16:53:19.280Z,20.30
2023-05-19T16:55:46.641Z,20.26
2023-05-19T16:58:13.954Z,20.23
2023-05-19T17:00:41.371Z,20.15
2023-05-19T17:03:11.674Z,20.14
2023-05-19T17:05:42.932Z,20.16
2023-05-19T17:08:10.633Z,20.12
2023-05-19T17:10:39.203Z,20.11
2023-05-19T17:13:06.724Z,20.06
2023-05-19T17:15:35.009Z,20.12
2023-05-19T17:18:02.342Z,20.10
2023-05-19T17:20:29.643Z,20.02
2023-05-19T17:22:56.937Z,20.00
2023-05-19T17:25:24.244Z,19.98
2023-05-19T17:27:52.397Z,19.97
2023-05-19T17:30:22.462Z,19.99
2023-05-19T17:32:50.122Z,19.98
2023-05-19T17:35:19.166Z,19.93
2023-05-19T17:37:46.442Z,19.89
2023-05-19T17:40:14.282Z,19.83
2023-05-19T17:42:41.542Z,19.78
2023-05-19T17:45:12.404Z,19.66
2023-05-19T17:47:40.087Z,19.60
2023-05-19T17:50:08.226Z,19.50
2023-05-19T17:52:36.254Z,19.43
2023-05-19T17:55:04.532Z,19.41
2023-05-19T17:57:35.448Z,19.38
2023-05-19T18:00:03.850Z,19.34
2023-05-19T18:02:52.748Z,19.29
2023-05-19T18:05:22.351Z,19.26
2023-05-19T18:07:51.044Z,19.18
2023-05-19T18:10:18.546Z,19.18
2023-05-19T18:12:45.901Z,19.15
2023-05-19T18:15:13.223Z,19.12
2023-05-19T18:17:40.802Z,19.11
2023-05-19T18:20:09.249Z,19.07
2023-05-19T18:22:36.562Z,19.03
2023-05-19T18:25:04.377Z,18.99
2023-05-19T18:27:33.353Z,18.91
2023-05-19T18:30:00.661Z,18.87
2023-05-19T18:32:28.077Z,18.79
2023-05-19T18:34:55.398Z,18.72
2023-05-19T18:37:22.742Z,18.66
2023-05-19T18:39:50.055Z,18.56
2023-05-19T18:42:17.376Z,18.47
2023-05-19T18:44:47.732Z,18.40
2023-05-19T18:47:15.941Z,18.35
2023-05-19T18:49:43.222Z,18.26
2023-05-19T18:52:10.720Z,18.21
2023-05-19T18:54:40.626Z,18.14
2023-05-19T18:57:11.152Z,18.09
2023-05-19T18:59:38.570Z,18.04
2023-05-19T19:02:06.675Z,17.97
2023-05-19T19:04:34.229Z,17.89
2023-05-19T19:07:01.576Z,17.82
2023-05-19T19:09:28.975Z,17.72
2023-05-19T19:11:56.308Z,17.64
2023-05-19T19:14:23.600Z,17.58
2023-05-19T19:16:50.887Z,17.50
2023-05-19T19:19:18.370Z,17.42
2023-05-19T19:21:45.839Z,17.39
2023-05-19T19:24:13.799Z,17.30
2023-05-19T19:26:41.149Z,17.23
2023-05-19T19:29:08.593Z,17.17
2023-05-19T19:31:35.887Z,17.10
2023-05-19T19:36:36.549Z,16.92
2023-05-19T19:39:03.923Z,16.86
2023-05-19T19:41:33.289Z,16.80
2023-05-19T19:44:00.722Z,16.73
2023-05-19T19:46:28.384Z,16.62
2023-05-19T19:49:00.744Z,16.55
2023-05-19T19:51:28.913Z,16.53
2023-05-19T19:53:56.270Z,16.46
2023-05-19T19:56:24.990Z,16.38
2023-05-19T19:58:56.909Z,16.29
2023-05-19T20:01:27.949Z,16.23
2023-05-19T20:03:57.417Z,16.17
2023-05-19T20:06:24.851Z,16.11
2023-05-19T20:08:52.345Z,16.07
2023-05-19T20:11:19.909Z,15.95
2023-05-19T20:13:48.393Z,15.98
2023-05-19T20:16:16.067Z,15.92
2023-05-19T20:18:43.404Z,15.85
2023-05-19T20:21:10.729Z,15.80
2023-05-19T20:23:40.588Z,15.73
2023-05-19T20:26:11.765Z,15.67
2023-05-19T20:28:41.619Z,15.59
2023-05-19T20:31:09.260Z,15.51
2023-05-19T20:33:36.608Z,15.45
2023-05-19T20:36:06.810Z,15.40
2023-05-19T20:38:34.169Z,15.32
2023-05-19T20:41:02.037Z,15.26
2023-05-19T20:43:29.364Z,15.19
2023-05-19T20:45:56.910Z,15.10
2023-05-19T20:48:24.394Z,15.10
2023-05-19T20:50:54.293Z,15.06
2023-05-19T20:53:22.703Z,14.96
2023-05-19T20:55:50.047Z,14.94
2023-05-19T20:58:17.405Z,14.89
2023-05-19T21:00:44.700Z,14.85
2023-05-19T21:03:12.771Z,14.81
2023-05-19T21:05:40.026Z,14.69
2023-05-19T21:08:13.261Z,14.71
2023-05-19T21:10:40.989Z,14.61
2023-05-19T21:13:08.537Z,14.60
2023-05-19T21:15:35.885Z,14.56
2023-05-19T21:18:04.107Z,14.49
2023-05-19T21:20:31.726Z,14.48
2023-05-19T21:22:59.253Z,14.44
2023-05-19T21:25:26.602Z,14.40
2023-05-19T21:27:55.461Z,14.38
2023-05-19T21:30:23.630Z,14.33
2023-05-19T21:32:51.340Z,14.29
2023-05-19T21:35:19.096Z,14.29
2023-05-19T21:37:46.615Z,14.25
2023-05-19T21:40:13.966Z,14.22
2023-05-19T21:42:41.291Z,14.18
2023-05-19T21:45:09.463Z,14.14
2023-05-19T21:47:36.960Z,14.11
2023-05-19T21:50:04.696Z,14.10
2023-05-19T21:52:31.979Z,14.11
2023-05-19T21:54:59.909Z,14.05
2023-05-19T21:57:27.188Z,14.06
2023-05-19T21:59:54.537Z,14.00
2023-05-19T22:02:21.968Z,13.99
2023-05-19T22:04:49.329Z,13.97
2023-05-19T22:07:16.628Z,13.95
2023-05-19T22:09:45.433Z,13.88
2023-05-19T22:12:14.052Z,13.91
2023-05-19T22:14:41.302Z,13.85
2023-05-19T22:17:08.976Z,13.83
2023-05-19T22:19:36.322Z,13.78
2023-05-19T22:22:13.133Z,13.77
2023-05-19T22:24:42.521Z,13.73
2023-05-19T22:27:10.273Z,13.73
2023-05-19T22:29:38.753Z,13.73
2023-05-19T22:32:11.953Z,13.67
2023-05-19T22:34:39.615Z,13.68
2023-05-19T22:37:06.954Z,13.68
2023-05-19T22:39:34.290Z,13.66
2023-05-19T22:42:02.572Z,13.61
2023-05-19T22:44:30.067Z,13.58
2023-05-19T22:46:57.444Z,13.55
2023-05-19T22:49:26.162Z,13.53
2023-05-19T22:51:53.609Z,13.48
2023-05-19T22:54:21.478Z,13.48
2023-05-19T22:56:49.039Z,13.47
2023-05-19T22:59:19.243Z,13.47
2023-05-19T23:01:46.811Z,13.47
2023-05-19T23:04:14.521Z,13.47
2023-05-19T23:06:41.949Z,13.45
2023-05-19T23:09:09.245Z,13.47
2023-05-19T23:11:36.683Z,13.44
2023-05-19T23:14:05.081Z,13.44
2023-05-19T23:16:32.453Z,13.43
2023-05-19T23:18:59.775Z,13.43
2023-05-19T23:21:27.121Z,13.45
2023-05-19T23:23:55.578Z,13.48
2023-05-19T23:26:22.926Z,13.51
2023-05-19T23:28:51.331Z,13.50
2023-05-19T23:31:18.609Z,13.47
2023-05-19T23:33:46.043Z,13.48
2023-05-19T23:36:13.487Z,13.46
2023-05-19T23:38:41.107Z,13.41
2023-05-19T23:41:08.405Z,13.38
2023-05-19T23:43:35.855Z,13.32
2023-05-19T23:46:03.536Z,13.34
2023-05-19T23:48:33.714Z,13.35
2023-05-19T23:51:02.604Z,13.26
2023-05-19T23:53:30.014Z,13.24
2023-05-19T23:55:58.730Z,13.20
2023-05-19T23:58:26.096Z,13.16
